Time;durP1;ratioP1;P1;durP2;ratioP2;P2;SDS_P1;SDS_P2;PMS_P1;PMS_P2;Temp;Humidity;BMP_temperature;BMP_pressure;BME280_temperature;BME280_humidity;BME280_pressure;Samples;Min_cycle;Max_cycle;Signal;HPM_P1;HPM_P2
2024/01/22 00:04:22;;;;;;;23.77;11.23;;;;;;;7.32;82.30;102317.88;10294262;28;97125;-78
2024/01/22 00:09:26;;;;;;;16.70;9.80;;;;;;;7.31;82.04;102316.16;10295569;28;96785;-78
2024/01/22 00:14:29;;;;;;;15.68;8.70;;;;;;;7.14;84.06;102311.66;10307092;28;96829;-78
2024/01/22 00:19:34;;;;;;;18.60;8.85;;;;;;;6.99;85.34;102332.50;10336425;28;96645;-78
2024/01/22 00:24:37;;;;;;;18.52;10.20;;;;;;;6.92;85.96;102326.34;10297822;28;96860;-79
2024/01/22 00:29:41;;;;;;;15.95;8.75;;;;;;;6.92;86.56;102321.13;10254614;28;96870;-78
2024/01/22 00:34:47;;;;;;;15.57;8.82;;;;;;;6.97;85.76;102328.97;10292978;28;96634;-78
2024/01/22 00:39:55;;;;;;;12.77;8.20;;;;;;;7.04;85.29;102320.31;10294937;28;96872;-78
2024/01/22 00:44:59;;;;;;;15.25;7.85;;;;;;;7.06;84.86;102318.59;10293979;28;96843;-78
2024/01/22 00:50:07;;;;;;;14.65;7.90;;;;;;;7.05;85.37;102322.06;10294766;28;97031;-78
2024/01/22 00:55:11;;;;;;;15.35;8.27;;;;;;;7.00;85.98;102313.31;10294093;28;96752;-78
2024/01/22 01:00:16;;;;;;;13.95;7.72;;;;;;;6.98;85.02;102326.38;10294114;28;96714;-77
2024/01/22 01:05:22;;;;;;;17.08;7.85;;;;;;;6.91;86.18;102329.81;10304043;28;96823;-78
2024/01/22 01:10:25;;;;;;;13.95;7.10;;;;;;;6.92;86.55;102317.59;10334942;28;96958;-78
2024/01/22 01:15:28;;;;;;;13.75;8.10;;;;;;;7.01;86.32;102309.84;10334410;28;96671;-78
2024/01/22 01:20:34;;;;;;;16.70;7.80;;;;;;;7.03;86.39;102313.31;10313353;28;96649;-78
2024/01/22 01:25:37;;;;;;;15.40;7.97;;;;;;;7.12;85.63;102298.56;10294050;28;97205;-78
2024/01/22 01:30:41;;;;;;;14.07;9.00;;;;;;;7.23;85.28;102294.28;10293186;28;96806;-78
2024/01/22 01:35:47;;;;;;;16.85;8.80;;;;;;;7.23;84.75;102290.78;10292649;28;96581;-78
2024/01/22 01:40:51;;;;;;;15.02;7.97;;;;;;;7.23;84.80;102278.59;10314988;28;96720;-78
2024/01/22 01:45:57;;;;;;;13.90;8.20;;;;;;;7.27;84.43;102272.47;10333360;28;96709;-78
2024/01/22 01:51:04;;;;;;;15.13;8.55;;;;;;;7.35;83.85;102268.19;10333846;28;97247;-78
2024/01/22 01:56:08;;;;;;;13.88;8.13;;;;;;;7.44;83.96;102254.25;10333323;28;97380;-78
2024/01/22 02:01:11;;;;;;;12.75;7.65;;;;;;;7.43;83.66;102262.97;10333322;28;96804;-78
2024/01/22 02:06:16;;;;;;;15.60;8.55;;;;;;;7.46;83.36;102281.34;10304564;28;97000;-78
2024/01/22 02:11:23;;;;;;;;;;;;;;;7.46;84.38;102268.25;10289304;28;96786;-78
2024/01/22 02:16:26;;;;;;;16.30;7.53;;;;;;;7.38;85.31;102257.72;10291913;28;96693;-78
2024/01/22 02:21:31;;;;;;;13.15;7.70;;;;;;;7.49;84.48;102266.47;10291233;28;97090;-78
2024/01/22 02:26:36;;;;;;;13.68;7.20;;;;;;;7.52;84.43;102253.41;10276663;28;96632;-78
2024/01/22 02:31:39;;;;;;;;;;;;;;;7.60;83.82;102256.06;10292243;28;96708;-78
2024/01/22 02:36:45;;;;;;;13.55;7.45;;;;;;;7.68;82.95;102257.84;10332021;28;96675;-78
2024/01/22 02:41:49;;;;;;;;;;;;;;;7.76;82.53;102264.00;10332499;28;97101;-78
2024/01/22 02:46:53;;;;;;;13.60;7.25;;;;;;;7.78;82.42;102261.38;10331429;28;96729;-78
2024/01/22 02:51:56;;;;;;;15.75;8.25;;;;;;;7.85;81.81;102261.41;10331538;28;96589;-78
2024/01/22 02:57:01;;;;;;;14.35;7.65;;;;;;;7.83;82.62;102263.16;10331026;28;97153;-78
2024/01/22 03:02:05;;;;;;;17.83;9.00;;;;;;;7.91;82.21;102266.66;10319595;28;96829;-78
2024/01/22 03:07:08;;;;;;;16.02;8.05;;;;;;;7.98;81.43;102264.94;10290435;28;97134;-78
2024/01/22 03:12:13;;;;;;;13.18;7.47;;;;;;;8.02;81.80;102269.31;10289917;28;96655;-78
2024/01/22 03:17:17;;;;;;;13.75;7.45;;;;;;;8.02;81.87;102271.94;10289275;28;96599;-78
2024/01/22 03:22:20;;;;;;;13.00;7.25;;;;;;;8.06;81.36;102278.97;10307400;28;96716;-78
2024/01/22 03:27:25;;;;;;;13.15;7.32;;;;;;;8.09;81.61;102270.19;10309112;28;97239;-78
2024/01/22 03:32:28;;;;;;;14.80;8.07;;;;;;;8.16;81.53;102271.97;10289282;28;96814;-78
2024/01/22 03:37:32;;;;;;;13.85;7.20;;;;;;;8.19;80.93;102270.22;10293362;28;96686;-78
2024/01/22 03:42:37;;;;;;;16.02;7.75;;;;;;;8.26;81.15;102273.72;10328900;28;96635;-78
2024/01/22 03:47:41;;;;;;;15.40;8.00;;;;;;;8.30;81.07;102271.13;10329602;28;96825;-78
2024/01/22 03:52:46;;;;;;;14.68;7.57;;;;;;;8.31;80.62;102285.09;10329015;28;96835;-78
2024/01/22 03:57:51;;;;;;;13.73;7.65;;;;;;;8.35;80.68;102284.25;10328484;28;96743;-78
2024/01/22 04:02:54;;;;;;;12.13;7.68;;;;;;;8.37;80.44;102283.41;10298603;28;97124;-78
2024/01/22 04:07:58;;;;;;;14.68;7.97;;;;;;;8.40;80.37;102298.25;10288220;28;96814;-78
2024/01/22 04:13:03;;;;;;;12.73;6.82;;;;;;;8.35;80.57;102279.00;10303422;28;97310;-78
2024/01/22 04:18:06;;;;;;;13.15;7.70;;;;;;;8.35;81.25;102268.50;10306141;22;96872;-78
2024/01/22 04:23:10;;;;;;;14.80;7.55;;;;;;;8.30;81.49;102263.28;10288189;28;96942;-78
2024/01/22 04:28:16;;;;;;;13.55;8.05;;;;;;;8.25;82.49;102254.53;10289176;28;97488;-78
2024/01/22 04:33:20;;;;;;;14.00;7.03;;;;;;;8.26;82.52;102242.25;10288962;28;96942;-78
2024/01/22 04:38:25;;;;;;;13.57;8.13;;;;;;;8.27;81.91;102231.81;10287494;28;97203;-78
2024/01/22 04:43:30;;;;;;;;;;;;;;;8.30;81.52;102229.19;10287383;28;97423;-78
2024/01/22 04:48:33;;;;;;;11.68;7.82;;;;;;;8.24;81.78;102223.91;10288078;28;98902;-78
2024/01/22 04:53:37;;;;;;;13.45;8.30;;;;;;;8.19;82.12;102228.28;10292456;28;96994;-79
2024/01/22 04:58:42;;;;;;;15.40;7.85;;;;;;;8.36;81.83;102233.56;10293930;28;96786;-78
2024/01/22 05:03:45;;;;;;;15.70;8.20;;;;;;;8.48;80.94;102238.81;10295079;28;97070;-78
2024/01/22 05:08:49;;;;;;;14.43;7.80;;;;;;;8.61;80.12;102261.53;10294107;28;97203;-78
2024/01/22 05:13:55;;;;;;;16.83;7.75;;;;;;;8.57;80.37;102280.78;10293635;28;96713;-78
2024/01/22 05:18:58;;;;;;;14.85;7.57;;;;;;;8.47;80.51;102297.38;10293948;28;97062;-78
2024/01/22 05:24:02;;;;;;;12.70;7.05;;;;;;;8.47;81.50;102277.28;10293972;28;96987;-78
2024/01/22 05:29:07;;;;;;;12.55;7.25;;;;;;;8.48;81.80;102281.63;10293340;28;96739;-78
2024/01/22 05:34:10;;;;;;;13.52;6.70;;;;;;;8.39;82.31;102294.78;10291793;28;96804;-78
2024/01/22 05:39:14;;;;;;;12.90;7.50;;;;;;;8.33;82.73;102284.25;10293074;28;96739;-78
2024/01/22 05:44:19;;;;;;;12.65;7.82;;;;;;;8.31;82.74;102275.50;10292519;28;96744;-79
2024/01/22 05:49:22;;;;;;;17.17;8.80;;;;;;;8.31;82.60;102253.63;10292529;28;97281;-78
2024/01/22 05:54:30;;;;;;;14.25;7.25;;;;;;;8.32;82.57;102253.66;10293280;28;96708;-79
2024/01/22 05:59:35;;;;;;;13.82;7.68;;;;;;;8.36;82.02;102251.91;10291983;28;96870;-79
2024/01/22 06:04:39;;;;;;;15.02;7.18;;;;;;;8.40;81.88;102253.66;10290981;28;97508;-79
2024/01/22 06:09:42;;;;;;;15.48;7.50;;;;;;;8.43;81.86;102267.66;10292493;28;97310;-79
2024/01/22 06:14:48;;;;;;;14.73;7.90;;;;;;;8.48;81.38;102267.66;10329148;28;97364;-78
2024/01/22 06:19:51;;;;;;;11.48;7.28;;;;;;;8.50;81.28;102265.91;10333130;28;96872;-78
2024/01/22 06:24:55;;;;;;;14.02;7.50;;;;;;;8.55;81.23;102275.53;10330307;28;96771;-78
2024/01/22 06:30:00;;;;;;;15.45;7.30;;;;;;;8.56;81.77;102272.06;10292637;28;96961;-78
2024/01/22 06:35:04;;;;;;;11.38;6.70;;;;;;;8.54;81.26;102278.16;10290798;28;96831;-78
2024/01/22 06:40:09;;;;;;;11.77;7.13;;;;;;;8.52;82.05;102254.53;10291100;28;96749;-78
2024/01/22 06:45:13;;;;;;;12.50;6.80;;;;;;;8.53;81.85;102266.78;10290947;28;96812;-78
2024/01/22 06:50:17;;;;;;;14.40;6.93;;;;;;;8.46;82.59;102279.91;10290438;28;98305;-78
2024/01/22 06:55:20;;;;;;;14.98;6.97;;;;;;;8.47;83.03;102281.66;10290674;28;96669;-78
2024/01/22 07:00:26;;;;;;;13.57;7.18;;;;;;;8.53;82.53;102282.53;10250756;28;97318;-78
2024/01/22 07:05:33;;;;;;;13.82;7.22;;;;;;;8.57;82.96;102293.88;10280572;28;96546;-78
2024/01/22 07:10:40;;;;;;;11.52;6.53;;;;;;;8.57;82.95;102273.78;10272059;28;97300;-78
2024/01/22 07:15:45;;;;;;;11.38;6.45;;;;;;;8.60;82.08;102267.69;10287713;28;97265;-78
2024/01/22 07:20:48;;;;;;;10.60;6.70;;;;;;;8.57;83.18;102284.28;10312169;28;97537;-78
2024/01/22 07:25:54;;;;;;;11.85;6.57;;;;;;;8.59;83.00;102289.53;10321746;28;96601;-78
2024/01/22 07:30:58;;;;;;;;;;;;;;;8.64;83.04;102283.41;10289867;28;96865;-78
2024/01/22 07:36:03;;;;;;;11.65;7.07;;;;;;;8.69;82.52;102289.53;10289898;28;96684;-78
2024/01/22 07:41:07;;;;;;;12.75;6.43;;;;;;;8.70;82.92;102275.56;10289241;28;96777;-78
2024/01/22 07:46:12;;;;;;;11.95;7.15;;;;;;;8.69;82.31;102286.91;10288873;28;96638;-78
2024/01/22 07:51:15;;;;;;;;;;;;;;;8.66;82.90;102302.66;10290225;28;96646;-78
2024/01/22 07:56:19;;;;;;;13.57;6.90;;;;;;;8.65;83.03;102298.28;10289316;28;96678;-78
2024/01/22 08:01:23;;;;;;;11.30;7.68;;;;;;;8.72;82.55;102302.66;10288955;28;96591;-78
2024/01/22 08:06:27;;;;;;;13.25;7.75;;;;;;;8.73;82.58;102307.03;10262224;28;96815;-78
2024/01/22 08:11:30;;;;;;;12.25;6.57;;;;;;;8.79;82.68;102314.91;10288429;28;96690;-78
2024/01/22 08:16:36;;;;;;;11.93;7.18;;;;;;;8.82;82.29;102328.06;10287791;28;96717;-78
2024/01/22 08:21:40;;;;;;;12.40;7.30;;;;;;;8.87;82.63;102347.31;10288020;28;96536;-78
2024/01/22 08:26:43;;;;;;;11.98;7.20;;;;;;;8.94;82.54;102350.81;10290805;28;96717;-78
2024/01/22 08:31:48;;;;;;;11.68;6.68;;;;;;;8.98;82.57;102348.16;10295165;28;98123;-78
2024/01/22 08:36:52;;;;;;;12.13;6.50;;;;;;;8.91;82.07;102338.53;10294928;28;96728;-78
2024/01/22 08:41:55;;;;;;;13.93;6.78;;;;;;;8.99;82.52;102349.06;10295512;28;97748;-78
2024/01/22 08:47:00;;;;;;;11.77;6.70;;;;;;;8.89;82.91;102357.81;10296063;28;97344;-78
2024/01/22 08:52:04;;;;;;;11.00;6.38;;;;;;;8.90;83.07;102356.91;10294751;28;97205;-78
2024/01/22 08:57:08;;;;;;;11.45;6.93;;;;;;;8.87;83.33;102347.31;10293179;28;97449;-78
2024/01/22 09:02:12;;;;;;;12.65;7.28;;;;;;;8.94;82.60;102348.19;10310528;28;96607;-78
2024/01/22 09:07:16;;;;;;;12.20;7.25;;;;;;;8.96;82.93;102341.19;10303771;28;96808;-78
2024/01/22 09:12:19;;;;;;;10.35;6.72;;;;;;;9.10;82.94;102361.28;10294131;28;96629;-78
2024/01/22 09:17:24;;;;;;;10.70;6.82;;;;;;;9.20;81.47;102351.69;10293310;28;97417;-78
2024/01/22 09:22:28;;;;;;;12.02;6.80;;;;;;;9.30;81.17;102368.31;10293522;28;97594;-78
2024/01/22 09:27:32;;;;;;;12.40;7.50;;;;;;;9.32;81.24;102358.69;10293263;28;96548;-78
2024/01/22 09:32:37;;;;;;;12.77;6.57;;;;;;;9.42;81.37;102370.94;10293717;28;96672;-78
2024/01/22 09:37:40;;;;;;;;;;;;;;;9.44;80.62;102363.94;10292551;28;96805;-78
2024/01/22 09:42:44;;;;;;;12.40;6.80;;;;;;;9.50;80.71;102391.06;10293056;28;96978;-78
2024/01/22 09:47:49;;;;;;;15.70;7.78;;;;;;;9.48;81.15;102394.59;10291261;28;98357;-78
2024/01/22 09:52:55;;;;;;;12.82;7.50;;;;;;;9.53;81.00;102398.09;10292607;28;97126;-78
2024/01/22 09:58:00;;;;;;;13.02;7.43;;;;;;;9.67;80.11;102401.59;10291629;28;96798;-78
2024/01/22 10:03:06;;;;;;;15.10;8.80;;;;;;;9.63;80.75;102407.72;10266017;28;96816;-78
2024/01/22 10:08:11;;;;;;;15.43;8.25;;;;;;;9.71;79.66;102422.59;10291924;28;96689;-79
2024/01/22 10:13:15;;;;;;;14.43;8.38;;;;;;;9.77;80.26;102430.47;10333194;28;96750;-78
2024/01/22 10:18:22;;;;;;;17.53;9.97;;;;;;;9.85;80.00;102433.97;10332288;28;96967;-78
2024/01/22 10:23:28;;;;;;;19.13;9.82;;;;;;;9.95;79.06;102429.56;10334569;28;96934;-78
2024/01/22 10:28:33;;;;;;;17.08;10.18;;;;;;;10.01;79.66;102434.81;10301630;28;96930;-78
2024/01/22 10:33:39;;;;;;;;;;;;;;;9.97;79.37;102436.56;10291374;28;96738;-78
2024/01/22 10:38:44;;;;;;;18.48;10.82;;;;;;;10.17;79.69;102441.78;10290242;28;97360;-78
2024/01/22 10:43:50;;;;;;;19.20;10.52;;;;;;;10.23;79.33;102442.63;10304920;28;97406;-79
2024/01/22 10:48:58;;;;;;;21.30;11.80;;;;;;;10.31;79.47;102444.34;10322513;28;97343;-78
2024/01/22 10:54:02;;;;;;;17.90;11.35;;;;;;;10.41;79.41;102459.22;10290315;28;96662;-78
2024/01/22 10:59:18;;;;;;;19.20;11.38;;;;;;;10.58;78.64;102460.91;10290374;28;97784;-78
2024/01/22 11:04:30;;;;;;;20.58;11.95;;;;;;;10.60;78.29;102476.69;10249422;28;96784;-78
2024/01/22 11:09:34;;;;;;;22.95;12.30;;;;;;;10.68;78.00;102474.91;10249906;28;97907;-78
2024/01/22 11:14:39;;;;;;;20.07;11.57;;;;;;;10.64;78.41;102476.69;10286591;28;97095;-78
2024/01/22 11:19:44;;;;;;;27.77;13.87;;;;;;;10.57;79.14;102469.69;10290436;28;97623;-78
2024/01/22 11:25:00;;;;;;;22.95;12.10;;;;;;;10.70;78.05;102467.88;10289778;28;97101;-79
2024/01/22 11:30:27;;;;;;;21.92;12.45;;;;;;;10.79;78.74;102462.56;10288769;28;97271;-78
2024/01/22 11:35:37;;;;;;;25.23;13.32;;;;;;;10.82;78.08;102450.25;10289751;28;97383;-78
2024/01/22 11:40:54;;;;;;;27.10;12.98;;;;;;;10.86;78.59;102445.84;10289250;28;96736;-78
2024/01/22 11:46:00;;;;;;;25.80;13.57;;;;;;;10.83;78.99;102445.88;10288779;28;96735;-78
2024/01/22 11:51:08;;;;;;;24.90;13.68;;;;;;;11.04;78.05;102451.84;10289602;28;96716;-78
2024/01/22 11:56:14;;;;;;;23.25;13.32;;;;;;;11.10;77.82;102466.78;10270620;28;97242;-78
2024/01/22 12:01:19;;;;;;;27.00;14.85;;;;;;;11.08;78.30;102465.88;10281665;28;96682;-78
2024/01/22 12:06:24;;;;;;;22.55;13.50;;;;;;;11.12;79.02;102468.53;10289373;28;97410;-78
2024/01/22 12:11:37;;;;;;;24.88;14.25;;;;;;;11.19;78.69;102459.72;10323814;28;97228;-78
2024/01/22 12:16:40;;;;;;;27.25;13.65;;;;;;;11.28;79.04;102462.28;10328879;28;97122;-78
2024/01/22 12:21:45;;;;;;;34.50;16.75;;;;;;;11.33;80.56;102434.13;10328185;28;97180;-78
2024/01/22 12:26:52;;;;;;;30.15;16.40;;;;;;;11.78;79.68;102429.31;10311186;28;97415;-78
2024/01/22 12:32:03;;;;;;;29.17;15.85;;;;;;;12.12;79.10;102407.84;10288271;28;97126;-79
2024/01/22 12:37:18;;;;;;;29.50;16.17;;;;;;;12.11;79.62;102411.38;10287906;28;97870;-79
2024/01/22 12:42:22;;;;;;;31.45;16.05;;;;;;;12.14;79.97;102397.25;10288420;28;96728;-78
2024/01/22 12:47:25;;;;;;;30.58;16.23;;;;;;;12.13;80.32;102390.25;10287851;28;96915;-78
2024/01/22 12:52:31;;;;;;;25.08;15.20;;;;;;;11.94;80.58;102380.78;10287493;28;97648;-78
2024/01/22 12:57:35;;;;;;;23.42;14.45;;;;;;;12.06;80.18;102375.38;10287887;28;97480;-79
2024/01/22 13:02:39;;;;;;;30.37;16.30;;;;;;;12.11;80.39;102374.44;10287848;28;96694;-78
2024/01/22 13:07:44;;;;;;;32.22;16.00;;;;;;;12.17;80.18;102357.63;10287242;28;97422;-79
2024/01/22 13:12:47;;;;;;;;;;;;;;;12.12;80.41;102370.00;10288706;28;96722;-78
2024/01/22 13:17:51;;;;;;;24.13;14.77;;;;;;;12.15;79.55;102354.16;10293783;28;96705;-78
2024/01/22 13:22:56;;;;;;;29.00;15.80;;;;;;;12.45;79.49;102338.75;10293847;28;96582;-78
2024/01/22 13:27:59;;;;;;;29.77;15.20;;;;;;;12.80;79.12;102330.34;10293477;28;96924;-79
2024/01/22 13:33:04;;;;;;;28.48;15.93;;;;;;;12.97;78.65;102332.72;10300712;28;97171;-78
2024/01/22 13:38:09;;;;;;;28.45;15.80;;;;;;;12.91;79.16;102319.63;10333786;28;97418;-78
2024/01/22 13:43:12;;;;;;;30.27;17.35;;;;;;;12.86;79.36;102301.16;10334005;28;96843;-78
2024/01/22 13:48:16;;;;;;;29.50;16.95;;;;;;;13.19;79.18;102292.66;10334092;28;96759;-78
2024/01/22 13:53:21;;;;;;;32.30;17.70;;;;;;;13.42;78.56;102303.72;10298708;28;96908;-78
2024/01/22 13:58:24;;;;;;;33.97;17.20;;;;;;;13.54;79.11;102307.88;10292012;28;96685;-79
2024/01/22 14:03:28;;;;;;;29.13;17.33;;;;;;;13.51;78.89;102308.84;10290886;28;97342;-78
2024/01/22 14:08:33;;;;;;;31.50;17.67;;;;;;;14.05;78.39;102298.06;10311227;28;97429;-79
2024/01/22 14:13:36;;;;;;;;;;;;;;;13.86;78.99;102308.13;10307335;28;96793;-79
2024/01/22 14:18:39;;;;;;;26.63;15.75;;;;;;;13.53;81.08;102311.44;10291554;28;96941;-79
2024/01/22 14:23:45;;;;;;;29.30;17.33;;;;;;;13.95;80.50;102299.97;10295193;28;97098;-79
2024/01/22 14:28:50;;;;;;;26.50;15.52;;;;;;;14.21;80.70;102295.03;10332596;28;97450;-79
2024/01/22 14:33:53;;;;;;;22.58;13.38;;;;;;;14.40;80.75;102284.94;10331938;28;96672;-79
2024/01/22 14:38:58;;;;;;;25.13;14.52;;;;;;;14.33;81.13;102275.38;10332910;28;96872;-78
2024/01/22 14:44:02;;;;;;;22.05;12.90;;;;;;;14.48;80.53;102275.00;10330889;28;96861;-79
2024/01/22 14:49:06;;;;;;;19.80;12.57;;;;;;;15.05;80.02;102268.28;10320020;28;96927;-79
2024/01/22 14:54:21;;;;;;;19.23;12.43;;;;;;;15.45;79.90;102276.06;10289230;28;97083;-79
2024/01/22 14:59:24;;;;;;;19.23;11.50;;;;;;;15.12;80.60;102288.41;10309065;28;97171;-79
2024/01/22 15:04:27;;;;;;;18.08;12.48;;;;;;;14.94;82.32;102288.88;10331316;28;98011;-78
2024/01/22 15:09:34;;;;;;;16.65;10.60;;;;;;;14.77;83.14;102312.28;10330580;28;96754;-78
2024/01/22 15:14:38;;;;;;;15.27;10.23;;;;;;;14.51;83.97;102307.59;10291540;28;96678;-78
2024/01/22 15:19:42;;;;;;;14.07;9.32;;;;;;;14.36;85.27;102305.31;10283767;28;96656;-78
2024/01/22 15:24:50;;;;;;;17.58;10.65;;;;;;;14.42;86.64;102278.66;10267331;28;97208;-79
2024/01/22 15:29:53;;;;;;;17.00;10.13;;;;;;;14.58;85.85;102273.88;10290100;28;96771;-79
2024/01/22 15:34:57;;;;;;;13.63;8.80;;;;;;;14.87;85.98;102283.78;10320271;28;96657;-79
2024/01/22 15:40:03;;;;;;;11.75;8.25;;;;;;;14.86;86.31;102280.25;10330301;28;96782;-79
2024/01/22 15:45:08;;;;;;;13.75;8.55;;;;;;;14.76;86.93;102290.22;10310692;28;97163;-78
2024/01/22 15:50:12;;;;;;;14.23;8.88;;;;;;;14.70;87.78;102292.13;10305713;28;96777;-79
2024/01/22 15:55:17;;;;;;;13.70;8.80;;;;;;;14.64;88.36;102309.03;10329529;28;96777;-78
2024/01/22 16:00:21;;;;;;;;;;;;;;;14.55;88.74;102284.56;10329998;28;96765;-78
2024/01/22 16:05:24;;;;;;;12.90;7.40;;;;;;;14.56;88.99;102297.75;10327353;28;97154;-78
2024/01/22 16:10:30;;;;;;;14.38;8.25;;;;;;;14.51;89.69;102301.41;10288436;28;97586;-78
2024/01/22 16:15:33;;;;;;;23.38;14.25;;;;;;;14.21;91.20;102310.94;10287735;28;96713;-78
2024/01/22 16:20:37;;;;;;;28.88;15.50;;;;;;;14.19;90.44;102319.81;10288534;28;96766;-78
2024/01/22 16:25:42;;;;;;;28.30;15.25;;;;;;;14.08;90.31;102317.41;10288580;28;96638;-78
2024/01/22 16:30:45;;;;;;;22.35;13.40;;;;;;;14.07;90.01;102326.25;10287915;28;96638;-79
2024/01/22 16:35:49;;;;;;;26.48;15.18;;;;;;;14.00;90.10;102334.31;10286929;28;98341;-79
2024/01/22 16:40:54;;;;;;;28.52;16.17;;;;;;;13.85;90.44;102337.28;10288408;28;96688;-78
2024/01/22 16:45:57;;;;;;;29.42;15.73;;;;;;;13.72;91.61;102338.41;10292706;22;96784;-79
2024/01/22 16:51:01;;;;;;;29.58;16.95;;;;;;;13.63;91.86;102350.94;10294569;28;96608;-78
2024/01/22 16:56:06;;;;;;;26.77;16.35;;;;;;;13.53;92.93;102357.28;10294388;28;96800;-78
2024/01/22 17:01:10;;;;;;;30.25;17.33;;;;;;;13.46;92.21;102357.41;10253867;28;97469;-79
2024/01/22 17:06:13;;;;;;;32.30;18.48;;;;;;;13.36;92.01;102359.34;10274149;28;97268;-79
2024/01/22 17:11:18;;;;;;;32.75;17.98;;;;;;;13.29;92.85;102368.28;10294484;28;96992;-79
2024/01/22 17:16:22;;;;;;;28.98;18.17;;;;;;;13.22;93.34;102371.94;10319997;28;96841;-78
2024/01/22 17:21:26;;;;;;;30.25;18.77;;;;;;;13.17;93.87;102378.22;10321628;28;97005;-78
2024/01/22 17:26:33;;;;;;;34.28;19.15;;;;;;;13.13;92.32;102382.66;10292914;28;97097;-79
2024/01/22 17:31:40;;;;;;;33.60;19.00;;;;;;;13.16;92.36;102387.91;10305255;28;96749;-78
2024/01/22 17:36:44;;;;;;;33.13;18.27;;;;;;;13.12;91.87;102391.47;10334309;28;97336;-78
2024/01/22 17:41:54;;;;;;;36.97;21.52;;;;;;;12.95;92.62;102398.81;10333960;28;96639;-78
2024/01/22 17:46:58;;;;;;;43.70;23.58;;;;;;;12.73;93.42;102401.78;10298194;28;96626;-78
2024/01/22 17:52:01;;;;;;;43.35;24.98;;;;;;;12.54;93.23;102401.13;10293146;28;96642;-78
2024/01/22 17:57:06;;;;;;;42.92;25.20;;;;;;;12.52;93.12;102408.19;10292433;28;97348;-78
2024/01/22 18:02:10;;;;;;;50.50;26.25;;;;;;;12.59;92.89;102407.22;10292129;28;97238;-79
2024/01/22 18:07:15;;;;;;;50.13;26.92;;;;;;;12.62;93.33;102415.09;10292335;28;97970;-79
2024/01/22 18:12:22;;;;;;;47.80;25.73;;;;;;;12.65;93.37;102436.25;10291970;28;97019;-79
2024/01/22 18:17:27;;;;;;;44.22;24.80;;;;;;;12.71;92.08;102448.47;10290546;28;96725;-78
2024/01/22 18:22:34;;;;;;;43.78;26.00;;;;;;;12.46;93.74;102445.28;10291902;28;96825;-78
2024/01/22 18:27:41;;;;;;;41.60;24.42;;;;;;;12.49;93.44;102458.44;10291260;28;96692;-78
2024/01/22 18:32:46;;;;;;;42.85;24.30;;;;;;;12.50;93.02;102447.84;10291145;28;96933;-78
2024/01/22 18:37:51;;;;;;;43.40;24.92;;;;;;;12.57;92.94;102457.44;10291365;28;97098;-78
2024/01/22 18:42:56;;;;;;;44.25;25.38;;;;;;;12.49;93.36;102461.94;10314583;28;97197;-78
2024/01/22 18:47:59;;;;;;;46.67;26.75;;;;;;;12.35;93.83;102463.00;10290626;28;97163;-78
2024/01/22 18:53:03;;;;;;;48.63;26.92;;;;;;;12.27;94.35;102462.22;10291040;28;96710;-78
2024/01/22 18:58:08;;;;;;;49.35;27.20;;;;;;;12.29;93.80;102463.06;10290644;28;97214;-78
2024/01/22 19:03:11;;;;;;;44.95;25.85;;;;;;;12.38;93.93;102455.03;10290165;28;96799;-78
2024/01/22 19:08:15;;;;;;;49.65;26.60;;;;;;;12.34;93.63;102459.47;10289231;28;96837;-79
2024/01/22 19:13:19;;;;;;;45.22;25.95;;;;;;;12.29;93.26;102456.03;10289959;28;96732;-78
2024/01/22 19:18:23;;;;;;;53.78;26.88;;;;;;;12.18;94.91;102451.75;10289333;28;97340;-78
2024/01/22 19:23:26;;;;;;;49.50;26.75;;;;;;;12.16;95.45;102442.97;10289350;28;96768;-79
2024/01/22 19:28:31;;;;;;;47.50;26.40;;;;;;;12.15;95.44;102441.25;10289449;28;96728;-79
2024/01/22 19:33:34;;;;;;;50.22;28.38;;;;;;;12.18;94.94;102442.09;10325839;28;97733;-78
2024/01/22 19:38:38;;;;;;;53.30;28.25;;;;;;;12.10;94.78;102436.00;10308694;28;96802;-78
2024/01/22 19:43:43;;;;;;;52.17;27.63;;;;;;;12.06;95.31;102442.22;10290067;28;96581;-78
2024/01/22 19:48:46;;;;;;;54.58;29.55;;;;;;;12.01;95.29;102432.59;10310360;28;97183;-78
2024/01/22 19:53:50;;;;;;;54.08;29.60;;;;;;;12.00;94.73;102444.03;10330049;28;96850;-78
2024/01/22 19:58:55;;;;;;;53.65;29.05;;;;;;;12.11;95.00;102448.31;10316828;28;97210;-78
2024/01/22 20:03:58;;;;;;;48.97;28.95;;;;;;;12.19;93.69;102446.47;10289412;28;97180;-78
2024/01/22 20:09:02;;;;;;;56.30;30.13;;;;;;;12.19;94.39;102456.13;10288280;28;96873;-79
2024/01/22 20:14:07;;;;;;;54.28;28.92;;;;;;;12.23;94.49;102447.31;10268099;28;96775;-79
2024/01/22 20:19:10;;;;;;;49.05;27.58;;;;;;;12.21;94.46;102443.81;10247341;28;97275;-78
2024/01/22 20:24:14;;;;;;;47.97;27.92;;;;;;;12.21;94.40;102452.59;10305200;28;96666;-78
2024/01/22 20:29:19;;;;;;;47.95;27.15;;;;;;;12.16;95.42;102449.16;10295370;28;96818;-79
2024/01/22 20:34:25;;;;;;;49.50;27.50;;;;;;;12.14;94.20;102453.56;10296021;28;96686;-78
2024/01/22 20:39:31;;;;;;;53.13;29.27;;;;;;;12.18;94.52;102467.59;10295743;28;96663;-78
2024/01/22 20:44:35;;;;;;;55.25;29.77;;;;;;;12.18;94.38;102468.47;10294660;28;96600;-78
2024/01/22 20:49:39;;;;;;;52.38;30.38;;;;;;;12.15;95.35;102475.56;10293441;28;96751;-78
2024/01/22 20:54:42;;;;;;;49.35;28.48;;;;;;;12.16;95.49;102482.56;10295042;28;96738;-78
2024/01/22 20:59:48;;;;;;;52.67;29.10;;;;;;;12.11;96.07;102490.56;10294124;28;97259;-78
2024/01/22 21:04:52;;;;;;;58.17;30.70;;;;;;;12.13;95.46;102485.25;10293996;28;97419;-79
2024/01/22 21:09:55;;;;;;;51.13;30.55;;;;;;;12.21;95.02;102493.94;10293644;28;96888;-78
2024/01/22 21:15:01;;;;;;;52.60;29.33;;;;;;;12.10;94.88;102488.78;10294225;28;96790;-78
2024/01/22 21:20:05;;;;;;;52.30;30.63;;;;;;;12.04;95.43;102509.97;10293504;28;97382;-78
2024/01/22 21:25:11;;;;;;;53.75;30.20;;;;;;;12.05;96.02;102510.81;10294023;28;96760;-78
2024/01/22 21:30:16;;;;;;;57.78;32.00;;;;;;;12.12;95.55;102513.41;10294145;28;96921;-79
2024/01/22 21:35:20;;;;;;;50.88;28.85;;;;;;;12.15;95.42;102517.78;10292364;28;98004;-78
2024/01/22 21:40:23;;;;;;;55.97;30.88;;;;;;;12.14;94.43;102531.84;10292019;28;96614;-78
2024/01/22 21:45:28;;;;;;;53.10;31.45;;;;;;;12.02;95.49;102540.78;10292535;28;96691;-78
2024/01/22 21:50:32;;;;;;;;;;;;;;;12.03;95.40;102544.31;10292875;28;96657;-78
2024/01/22 21:55:35;;;;;;;55.88;30.65;;;;;;;12.08;95.60;102551.25;10292217;28;98331;-78
2024/01/22 22:00:41;;;;;;;56.25;30.92;;;;;;;12.15;95.99;102560.03;10292014;28;96825;-79
2024/01/22 22:05:45;;;;;;;53.42;30.88;;;;;;;12.11;95.15;102559.16;10292102;28;96716;-79
2024/01/22 22:10:53;;;;;;;57.77;31.27;;;;;;;12.07;96.09;102561.84;10291500;28;96911;-79
2024/01/22 22:15:58;;;;;;;59.85;31.45;;;;;;;12.16;95.33;102549.44;10292092;28;97065;-79
2024/01/22 22:21:01;;;;;;;;;;;;;;;12.12;95.34;102546.81;10292411;28;96956;-79
2024/01/22 22:26:05;;;;;;;57.97;31.08;;;;;;;12.02;95.13;102546.06;10291452;28;96757;-79
2024/01/22 22:31:09;;;;;;;59.75;30.98;;;;;;;11.93;96.75;102543.50;10289982;28;96974;-79
2024/01/22 22:36:15;;;;;;;59.05;31.58;;;;;;;11.98;96.34;102539.03;10291666;28;97246;-78
2024/01/22 22:41:19;;;;;;;57.25;31.50;;;;;;;12.04;96.53;102548.66;10331715;28;96938;-78
2024/01/22 22:46:24;;;;;;;55.65;31.13;;;;;;;11.98;95.59;102546.97;10330592;28;96957;-79
2024/01/22 22:51:27;;;;;;;62.40;33.28;;;;;;;11.89;96.91;102548.81;10322604;28;96974;-78
2024/01/22 22:56:31;;;;;;;55.08;32.30;;;;;;;11.81;96.60;102548.88;10290911;28;97687;-78
2024/01/22 23:01:36;;;;;;;59.55;31.30;;;;;;;11.81;96.85;102537.44;10290299;28;96616;-79
2024/01/22 23:06:39;;;;;;;60.97;32.60;;;;;;;11.77;99.06;102541.00;10290642;28;96842;-79
2024/01/22 23:11:43;;;;;;;64.93;33.38;;;;;;;11.74;99.21;102551.56;10290664;28;96831;-78